Time;durP1;ratioP1;P1;durP2;ratioP2;P2;SDS_P1;SDS_P2;PMS_P1;PMS_P2;Temp;Humidity;BMP_temperature;BMP_pressure;BME280_temperature;BME280_humidity;BME280_pressure;Samples;Min_cycle;Max_cycle;Signal;HPM_P1;HPM_P2
2021/03/09 00:00:57;;;;;;;20.90;12.00;;;0.00;14.80;;;;;;4901892;29;20636;-72
2021/03/09 00:03:25;;;;;;;25.67;13.25;;;-0.10;15.50;;;;;;4905581;29;20169;-73
2021/03/09 00:05:52;;;;;;;21.98;12.57;;;-0.10;16.30;;;;;;4908021;29;20071;-71
2021/03/09 00:08:19;;;;;;;24.65;13.13;;;-0.10;16.80;;;;;;4905836;29;20062;-73
2021/03/09 00:10:47;;;;;;;23.15;13.38;;;-0.20;17.20;;;;;;4900344;29;20147;-72
2021/03/09 00:13:14;;;;;;;23.20;12.73;;;-0.10;17.80;;;;;;4901785;29;20052;-72
2021/03/09 00:15:41;;;;;;;22.02;12.50;;;-0.20;17.90;;;;;;4903394;29;20041;-73
2021/03/09 00:18:13;;;;;;;25.13;13.50;;;-0.20;18.30;;;;;;4901174;29;20497;-72
2021/03/09 00:20:41;;;;;;;23.80;12.48;;;-0.20;18.60;;;;;;4904565;29;20166;-72
2021/03/09 00:23:08;;;;;;;23.35;12.35;;;-0.30;18.70;;;;;;4900545;29;20076;-73
2021/03/09 00:25:35;;;;;;;23.35;12.57;;;-0.30;19.70;;;;;;4905686;29;20048;-73
2021/03/09 00:28:02;;;;;;;20.27;12.30;;;-0.30;19.70;;;;;;4902899;29;20553;-73
2021/03/09 00:30:29;;;;;;;25.45;13.10;;;-0.40;19.50;;;;;;4903012;29;20056;-71
2021/03/09 00:32:57;;;;;;;29.52;13.60;;;-0.40;19.60;;;;;;4896170;29;20053;-72
2021/03/09 00:35:25;;;;;;;27.98;13.85;;;-0.40;20.70;;;;;;4901938;29;20052;-71
2021/03/09 00:37:53;;;;;;;26.33;13.35;;;-0.20;20.10;;;;;;4903179;29;20100;-70
2021/03/09 00:40:20;;;;;;;22.08;12.45;;;-0.40;19.60;;;;;;4904875;29;20056;-71
2021/03/09 00:42:47;;;;;;;23.63;13.30;;;-0.50;19.60;;;;;;4902678;29;20054;-74
2021/03/09 00:45:14;;;;;;;29.15;14.10;;;-0.60;20.30;;;;;;4904297;29;20419;-72
2021/03/09 00:47:54;;;;;;;22.75;13.75;;;-0.50;21.80;;;;;;4901131;29;20128;-72
2021/03/09 00:50:21;;;;;;;23.88;13.68;;;-0.70;21.20;;;;;;4903343;29;20060;-71
2021/03/09 00:52:48;;;;;;;24.55;13.90;;;-0.60;22.00;;;;;;4902016;29;20048;-72
2021/03/09 00:55:17;;;;;;;26.13;14.80;;;-0.70;22.30;;;;;;4900850;29;20049;-72
2021/03/09 00:57:44;;;;;;;29.13;15.52;;;-0.60;22.90;;;;;;4901903;29;20605;-72
2021/03/09 01:00:12;;;;;;;28.17;15.02;;;-0.70;22.50;;;;;;4901375;29;20048;-71
2021/03/09 01:02:39;;;;;;;25.77;15.57;;;-0.70;22.80;;;;;;4901145;29;20068;-71
2021/03/09 01:05:07;;;;;;;27.05;15.52;;;-0.70;22.80;;;;;;4900745;29;20044;-71
2021/03/09 01:07:34;;;;;;;29.15;15.38;;;-0.80;22.90;;;;;;4898567;29;20066;-70
2021/03/09 01:10:01;;;;;;;27.60;14.93;;;-0.80;23.30;;;;;;4898480;29;20477;-71
2021/03/09 01:12:29;;;;;;;26.35;15.52;;;-0.70;23.40;;;;;;4899406;29;20060;-71
2021/03/09 01:14:56;;;;;;;22.75;14.35;;;-0.70;23.80;;;;;;4901536;29;20051;-72
2021/03/09 01:17:23;;;;;;;27.27;15.65;;;-0.60;24.10;;;;;;4898240;29;20048;-70
2021/03/09 01:19:50;;;;;;;29.35;14.88;;;-0.80;22.80;;;;;;4905319;29;20100;-74
2021/03/09 01:22:17;;;;;;;26.38;13.90;;;-0.80;23.50;;;;;;4898284;29;20061;-72
2021/03/09 01:24:44;;;;;;;27.08;13.90;;;-0.80;23.40;;;;;;4907510;29;20048;-72
2021/03/09 01:27:11;;;;;;;27.58;14.70;;;-0.80;23.60;;;;;;4899935;29;20048;-72
2021/03/09 01:29:39;;;;;;;26.65;15.70;;;-0.70;24.20;;;;;;4900122;29;20063;-71
2021/03/09 01:32:09;;;;;;;33.13;16.40;;;-0.80;23.40;;;;;;4898482;29;20508;-70
2021/03/09 01:34:37;;;;;;;24.10;14.60;;;-0.70;24.30;;;;;;4903488;29;20052;-70
2021/03/09 01:37:04;;;;;;;24.92;14.85;;;-0.80;23.70;;;;;;4901123;29;20140;-71
2021/03/09 01:39:32;;;;;;;21.98;13.35;;;-0.70;23.40;;;;;;4902821;29;20052;-73
2021/03/09 01:42:00;;;;;;;26.17;14.38;;;-0.60;24.00;;;;;;4900112;29;20112;-72
2021/03/09 01:44:27;;;;;;;25.25;14.10;;;-0.50;22.90;;;;;;4898708;29;20048;-72
2021/03/09 01:46:59;;;;;;;25.83;14.02;;;-0.50;23.10;;;;;;4902326;29;20131;-72
2021/03/09 01:49:32;;;;;;;27.10;14.30;;;-0.60;22.00;;;;;;4903257;29;20052;-71
2021/03/09 01:52:06;;;;;;;27.23;14.32;;;-0.70;21.60;;;;;;4897486;29;20063;-72
2021/03/09 01:54:35;;;;;;;24.20;13.98;;;-0.70;21.60;;;;;;4900105;29;22007;-72
2021/03/09 01:57:03;;;;;;;23.63;13.73;;;-0.70;21.70;;;;;;4902573;29;20052;-71
2021/03/09 01:59:36;;;;;;;27.52;14.82;;;-0.80;22.20;;;;;;4902164;29;20655;-71
2021/03/09 02:02:06;;;;;;;24.90;14.25;;;-0.80;22.70;;;;;;4896832;29;20503;-71
2021/03/09 02:04:35;;;;;;;29.83;14.85;;;-0.80;23.00;;;;;;4899728;29;20434;-73
2021/03/09 02:07:03;;;;;;;31.35;15.50;;;-0.80;23.20;;;;;;4911375;29;20056;-72
2021/03/09 02:09:34;;;;;;;30.88;15.40;;;-0.80;23.70;;;;;;4909222;29;20056;-72
2021/03/09 02:12:13;;;;;;;27.33;15.95;;;-0.80;23.90;;;;;;4902253;29;20055;-72
2021/03/09 02:14:50;;;;;;;29.77;16.58;;;-0.90;23.90;;;;;;4908220;29;20919;-72
2021/03/09 02:17:24;;;;;;;27.73;15.10;;;-0.80;24.80;;;;;;4906381;29;20515;-71
2021/03/09 02:20:34;;;;;;;28.75;15.60;;;-0.80;24.60;;;;;;4907189;29;20535;-73
2021/03/09 02:23:38;;;;;;;29.45;16.58;;;-0.80;24.60;;;;;;4906391;29;20704;-73
2021/03/09 02:26:32;;;;;;;30.77;16.00;;;-0.90;24.80;;;;;;4905791;29;20058;-71
2021/03/09 02:29:15;;;;;;;32.53;17.90;;;-0.90;25.60;;;;;;4902361;29;20529;-73
2021/03/09 02:31:45;;;;;;;29.13;15.82;;;-0.90;26.00;;;;;;4904022;29;20059;-73
2021/03/09 02:34:21;;;;;;;29.67;16.23;;;-0.80;26.10;;;;;;4906397;29;20097;-73
2021/03/09 02:36:49;;;;;;;27.83;15.15;;;-0.80;25.20;;;;;;4905872;29;20118;-71
2021/03/09 02:39:17;;;;;;;29.33;15.25;;;-0.80;24.60;;;;;;4903549;29;20056;-72
2021/03/09 02:41:45;;;;;;;28.17;15.30;;;-0.90;24.20;;;;;;4905574;29;20048;-74
2021/03/09 02:44:17;;;;;;;29.75;14.60;;;-0.90;25.40;;;;;;4908036;29;20104;-72
2021/03/09 02:46:47;;;;;;;24.55;14.73;;;-1.00;24.80;;;;;;4903378;29;20059;-71
2021/03/09 02:49:28;;;;;;;29.42;16.52;;;-1.10;25.40;;;;;;4898524;29;20059;-71
2021/03/09 02:51:55;;;;;;;27.83;16.05;;;-1.10;25.80;;;;;;4903834;29;20056;-71
2021/03/09 02:54:24;;;;;;;33.58;16.52;;;-1.10;25.40;;;;;;4902683;29;20060;-72
2021/03/09 02:56:51;;;;;;;35.30;17.35;;;-1.10;25.90;;;;;;4902473;29;20044;-72
2021/03/09 02:59:20;;;;;;;30.10;16.42;;;-1.10;26.20;;;;;;4906387;29;20050;-72
2021/03/09 03:01:49;;;;;;;33.40;15.90;;;-1.20;25.80;;;;;;4899889;29;20048;-74
2021/03/09 03:04:19;;;;;;;32.67;17.08;;;-1.20;26.30;;;;;;4905273;29;20066;-73
2021/03/09 03:06:48;;;;;;;31.65;15.70;;;-1.20;26.00;;;;;;4901986;29;20071;-76
2021/03/09 03:09:18;;;;;;;30.73;15.27;;;-1.20;26.60;;;;;;4904527;29;20055;-74
2021/03/09 03:11:45;;;;;;;30.50;16.17;;;-1.20;26.70;;;;;;4897690;29;20056;-71
2021/03/09 03:14:14;;;;;;;27.15;15.77;;;-1.10;26.20;;;;;;4904451;29;20047;-72
2021/03/09 03:16:42;;;;;;;29.75;15.82;;;-1.10;25.90;;;;;;4907615;29;20052;-73
2021/03/09 03:19:13;;;;;;;27.08;15.18;;;-1.10;25.90;;;;;;4905497;29;20476;-73
2021/03/09 03:21:40;;;;;;;28.27;15.80;;;-1.00;27.00;;;;;;4905997;29;20058;-73
2021/03/09 03:24:10;;;;;;;33.47;16.15;;;-1.10;25.90;;;;;;4907919;29;20048;-73
2021/03/09 03:26:40;;;;;;;32.42;16.30;;;-1.20;25.90;;;;;;4908562;29;20074;-72
2021/03/09 03:29:08;;;;;;;32.05;15.93;;;-1.10;26.50;;;;;;4902526;29;20515;-72
2021/03/09 03:31:36;;;;;;;30.08;15.70;;;-1.10;26.70;;;;;;4899124;29;20059;-71
2021/03/09 03:34:04;;;;;;;29.05;16.23;;;-1.20;26.30;;;;;;4902094;29;20139;-73
2021/03/09 03:36:33;;;;;;;30.58;16.67;;;-1.20;26.20;;;;;;4902594;29;20053;-73
2021/03/09 03:39:00;;;;;;;27.73;14.98;;;-1.10;27.60;;;;;;4902759;29;20057;-72
2021/03/09 03:41:27;;;;;;;31.83;16.70;;;-1.20;26.20;;;;;;4896908;29;20132;-73
2021/03/09 03:43:54;;;;;;;32.13;16.95;;;-1.20;26.40;;;;;;4903527;29;20048;-73
2021/03/09 03:46:22;;;;;;;29.52;16.17;;;-1.20;27.20;;;;;;4904712;29;20105;-72
2021/03/09 03:48:49;;;;;;;29.92;16.52;;;-1.20;26.90;;;;;;4902180;29;20059;-73
2021/03/09 03:51:19;;;;;;;32.92;16.92;;;-1.30;26.90;;;;;;4900635;29;20104;-73
2021/03/09 03:53:53;;;;;;;37.53;18.75;;;-1.20;27.90;;;;;;4906500;29;20052;-72
2021/03/09 03:56:28;;;;;;;31.42;17.70;;;-1.10;28.10;;;;;;4904811;29;20460;-74
2021/03/09 03:59:01;;;;;;;34.72;17.58;;;-1.10;27.10;;;;;;4899146;29;20060;-73
2021/03/09 04:01:30;;;;;;;30.98;17.50;;;-1.00;27.40;;;;;;4900653;29;20087;-73
2021/03/09 04:03:58;;;;;;;29.67;16.10;;;-1.10;26.10;;;;;;4904127;29;20051;-74
2021/03/09 04:06:28;;;;;;;39.40;18.80;;;-1.10;26.30;;;;;;4908238;29;20048;-72
2021/03/09 04:08:59;;;;;;;32.47;17.45;;;-1.10;26.70;;;;;;4908915;29;20054;-72
2021/03/09 04:11:26;;;;;;;31.40;17.88;;;-1.10;25.90;;;;;;4895867;29;20136;-73
2021/03/09 04:13:53;;;;;;;32.58;17.13;;;-1.20;26.20;;;;;;4904315;29;20044;-73
2021/03/09 04:16:21;;;;;;;31.77;16.50;;;-1.20;26.50;;;;;;4901513;29;20052;-72
2021/03/09 04:18:50;;;;;;;34.35;17.08;;;-1.30;26.70;;;;;;4903784;29;20051;-75
2021/03/09 04:21:17;;;;;;;35.72;18.40;;;-1.30;27.50;;;;;;4904036;29;20048;-74
2021/03/09 04:23:44;;;;;;;34.80;17.50;;;-1.20;28.60;;;;;;4905110;29;20056;-73
2021/03/09 04:26:13;;;;;;;32.30;17.75;;;-1.20;27.30;;;;;;4907158;29;20434;-73
2021/03/09 04:28:41;;;;;;;31.52;17.70;;;-1.10;27.10;;;;;;4904239;29;20134;-72
2021/03/09 04:31:08;;;;;;;35.20;17.20;;;-1.20;27.00;;;;;;4902797;29;20131;-73
2021/03/09 04:33:36;;;;;;;31.17;16.23;;;-1.30;27.00;;;;;;4902628;29;20048;-74
2021/03/09 04:36:05;;;;;;;31.23;16.70;;;-1.30;27.40;;;;;;4903262;29;20078;-73
2021/03/09 04:38:33;;;;;;;30.73;16.27;;;-1.30;27.70;;;;;;4900308;29;20052;-74
2021/03/09 04:41:01;;;;;;;33.78;17.15;;;-1.40;27.70;;;;;;4900725;29;20131;-72
2021/03/09 04:43:29;;;;;;;27.52;15.15;;;-1.40;27.60;;;;;;4899106;29;20056;-72
2021/03/09 04:45:57;;;;;;;28.17;15.75;;;-1.40;28.40;;;;;;4904507;29;20044;-73
2021/03/09 04:48:25;;;;;;;35.15;17.65;;;-1.30;28.20;;;;;;4899373;29;20059;-73
2021/03/09 04:51:05;;;;;;;31.70;16.77;;;-1.40;28.30;;;;;;4901304;29;20048;-73
2021/03/09 04:53:32;;;;;;;33.88;17.33;;;-1.40;28.30;;;;;;4899020;29;20574;-72
2021/03/09 04:55:59;;;;;;;31.75;18.30;;;-1.40;28.00;;;;;;4903921;29;20048;-73
2021/03/09 04:58:27;;;;;;;29.85;16.13;;;-1.40;28.10;;;;;;4905378;29;20052;-74
2021/03/09 05:00:55;;;;;;;33.03;16.73;;;-1.50;28.80;;;;;;4902475;29;20044;-74
2021/03/09 05:03:23;;;;;;;28.60;17.35;;;-1.50;28.30;;;;;;4908825;29;20056;-73
2021/03/09 05:05:51;;;;;;;36.35;18.35;;;-1.40;28.60;;;;;;4908577;29;20072;-73
2021/03/09 05:08:18;;;;;;;36.42;18.20;;;-1.50;28.30;;;;;;4903384;29;20102;-73
2021/03/09 05:10:45;;;;;;;36.90;19.30;;;-1.50;28.30;;;;;;4900620;29;20055;-74
2021/03/09 05:13:14;;;;;;;32.92;17.98;;;-1.40;29.00;;;;;;4901712;29;20052;-73
2021/03/09 05:15:40;;;;;;;30.88;17.27;;;-1.50;28.30;;;;;;4904770;29;20055;-72
2021/03/09 05:18:09;;;;;;;30.33;17.70;;;-1.50;28.50;;;;;;4902681;29;20044;-73
2021/03/09 05:20:36;;;;;;;33.20;17.95;;;-1.50;28.90;;;;;;4900868;29;20060;-73
2021/03/09 05:23:03;;;;;;;34.97;18.75;;;-1.40;29.40;;;;;;4904649;29;20045;-73
2021/03/09 05:25:30;;;;;;;35.33;19.02;;;-1.40;29.00;;;;;;4906647;29;20056;-72
2021/03/09 05:27:57;;;;;;;39.30;18.52;;;-1.30;28.50;;;;;;4901776;29;20411;-73
2021/03/09 05:30:25;;;;;;;35.90;18.17;;;-1.40;27.90;;;;;;4893869;29;20059;-73
2021/03/09 05:32:52;;;;;;;33.40;17.60;;;-1.40;28.20;;;;;;4900686;29;20659;-73
2021/03/09 05:35:20;;;;;;;33.85;17.77;;;-1.40;28.60;;;;;;4896447;29;20053;-73
2021/03/09 05:37:47;;;;;;;38.78;18.08;;;-1.30;28.20;;;;;;4900933;29;20416;-73
2021/03/09 05:40:17;;;;;;;33.58;18.15;;;-1.30;28.10;;;;;;4905227;29;20553;-74
2021/03/09 05:42:47;;;;;;;35.47;18.85;;;-1.30;27.70;;;;;;4906100;29;20134;-73
2021/03/09 05:45:14;;;;;;;36.22;18.40;;;-1.30;27.70;;;;;;4906897;29;20468;-71
2021/03/09 05:47:42;;;;;;;36.03;19.27;;;-1.30;28.00;;;;;;4903585;29;20052;-72
2021/03/09 05:50:10;;;;;;;35.53;18.88;;;-1.30;28.30;;;;;;4904681;29;20111;-73
2021/03/09 05:52:41;;;;;;;33.00;18.33;;;-1.30;28.30;;;;;;4904967;29;20163;-73
2021/03/09 05:55:10;;;;;;;37.85;18.95;;;-1.30;28.40;;;;;;4905455;29;20135;-72
2021/03/09 05:57:37;;;;;;;36.03;18.17;;;-1.30;28.60;;;;;;4905439;29;20064;-72
2021/03/09 06:00:05;;;;;;;36.95;18.20;;;-1.20;28.40;;;;;;4905452;29;20047;-72
2021/03/09 06:02:33;;;;;;;37.30;18.90;;;-1.20;27.70;;;;;;4905159;29;20052;-73
2021/03/09 06:05:00;;;;;;;30.00;17.77;;;-1.20;27.20;;;;;;4907771;29;20057;-73
2021/03/09 06:07:27;;;;;;;34.15;18.27;;;-1.10;27.10;;;;;;4903683;29;20074;-72
2021/03/09 06:09:55;;;;;;;34.10;17.48;;;-1.10;26.50;;;;;;4908126;29;20055;-72
2021/03/09 06:12:24;;;;;;;36.80;18.95;;;-1.10;26.70;;;;;;4900740;29;20143;-73
2021/03/09 06:15:03;;;;;;;37.10;18.63;;;-1.00;26.90;;;;;;4905126;29;20111;-73
2021/03/09 06:17:35;;;;;;;33.03;18.17;;;-1.00;26.90;;;;;;4904102;29;20052;-72
2021/03/09 06:20:23;;;;;;;29.83;17.58;;;-0.90;26.40;;;;;;4900892;29;20773;-72
2021/03/09 06:22:52;;;;;;;36.60;17.33;;;-0.80;26.10;;;;;;4904305;29;20052;-72
2021/03/09 06:25:20;;;;;;;29.23;16.50;;;-0.70;26.10;;;;;;4904667;29;20052;-72
2021/03/09 06:27:48;;;;;;;30.10;17.00;;;-0.60;25.40;;;;;;4904039;29;20054;-72
2021/03/09 06:30:31;;;;;;;30.75;17.10;;;-0.50;24.50;;;;;;4898950;29;20052;-71
2021/03/09 06:32:59;;;;;;;26.90;15.80;;;-0.30;23.20;;;;;;4901218;29;20591;-71
2021/03/09 06:35:38;;;;;;;31.80;15.95;;;-0.20;21.40;;;;;;4905177;29;20460;-73
2021/03/09 06:38:19;;;;;;;27.38;15.50;;;-0.10;19.80;;;;;;4902833;29;20511;-72
2021/03/09 06:41:06;;;;;;;28.33;14.80;;;-0.10;18.80;;;;;;4902729;29;20058;-73
2021/03/09 06:43:34;;;;;;;23.90;14.38;;;-0.10;18.40;;;;;;4909046;29;20056;-73
2021/03/09 06:46:16;;;;;;;24.63;13.38;;;0.00;18.20;;;;;;4909197;29;20064;-71
2021/03/09 06:48:44;;;;;;;27.85;14.35;;;0.00;17.60;;;;;;4904198;29;20522;-72
2021/03/09 06:51:31;;;;;;;26.95;14.93;;;0.10;17.40;;;;;;4904352;29;20048;-72
2021/03/09 06:54:00;;;;;;;28.58;14.10;;;0.20;16.50;;;;;;4903820;29;20127;-72
2021/03/09 06:56:28;;;;;;;26.25;14.30;;;0.30;15.90;;;;;;4907235;29;21295;-71
2021/03/09 06:58:56;;;;;;;29.35;15.13;;;0.40;15.50;;;;;;4905415;29;20132;-72
2021/03/09 07:01:23;;;;;;;28.95;15.45;;;0.50;14.80;;;;;;4906343;29;20069;-72
2021/03/09 07:03:51;;;;;;;25.55;14.38;;;0.60;14.20;;;;;;4904446;29;20095;-70
2021/03/09 07:06:18;;;;;;;26.77;13.02;;;0.60;13.30;;;;;;4911285;29;20056;-72
2021/03/09 07:08:45;;;;;;;32.17;15.57;;;0.80;13.40;;;;;;4903358;29;20086;-75
2021/03/09 07:11:15;;;;;;;25.73;14.35;;;0.80;12.50;;;;;;4901204;29;20054;-73
2021/03/09 07:13:44;;;;;;;27.67;14.15;;;1.00;12.40;;;;;;4905667;29;20056;-73
2021/03/09 07:16:13;;;;;;;24.17;13.52;;;1.10;11.60;;;;;;4908049;29;20045;-74
2021/03/09 07:18:46;;;;;;;30.88;13.65;;;1.10;10.50;;;;;;4901564;29;20059;-74
2021/03/09 07:21:13;;;;;;;25.35;13.38;;;1.20;10.30;;;;;;4903204;29;20066;-72
2021/03/09 07:23:41;;;;;;;23.23;13.02;;;1.30;9.60;;;;;;4903215;29;20056;-73
2021/03/09 07:26:13;;;;;;;27.75;14.35;;;1.40;8.40;;;;;;4909476;29;20040;-74
2021/03/09 07:28:45;;;;;;;22.73;13.27;;;1.50;7.80;;;;;;4900294;29;20060;-73
2021/03/09 07:31:13;;;;;;;25.95;14.00;;;1.60;7.20;;;;;;4902499;29;20495;-74
2021/03/09 07:33:41;;;;;;;25.92;13.15;;;1.70;6.90;;;;;;4905463;29;20099;-73
2021/03/09 07:36:08;;;;;;;26.70;13.27;;;1.70;7.00;;;;;;4905656;29;20072;-73
2021/03/09 07:38:41;;;;;;;25.13;13.57;;;1.80;5.90;;;;;;4901136;29;20051;-72
2021/03/09 07:41:09;;;;;;;26.30;13.13;;;1.80;6.50;;;;;;4899870;29;20044;-73
2021/03/09 07:43:38;;;;;;;24.88;13.95;;;2.10;5.00;;;;;;4898674;29;20405;-73
2021/03/09 07:46:08;;;;;;;22.45;12.90;;;2.10;5.20;;;;;;4907501;29;20111;-73
2021/03/09 07:48:35;;;;;;;24.73;13.40;;;2.10;4.60;;;;;;4902478;29;20052;-73
2021/03/09 07:51:04;;;;;;;23.92;13.82;;;2.30;4.10;;;;;;4905462;29;20092;-72
2021/03/09 07:53:30;;;;;;;23.50;13.32;;;2.30;3.10;;;;;;4900996;29;20064;-73
2021/03/09 07:56:14;;;;;;;21.63;12.60;;;2.20;3.10;;;;;;4903129;29;20413;-74
2021/03/09 07:58:41;;;;;;;26.35;13.07;;;2.30;3.60;;;;;;4898314;29;20064;-73
2021/03/09 08:01:10;;;;;;;27.58;14.05;;;2.50;2.70;;;;;;4900939;29;20044;-72
2021/03/09 08:03:37;;;;;;;20.85;12.75;;;2.50;1.90;;;;;;4905557;29;20558;-71
2021/03/09 08:06:05;;;;;;;23.27;13.70;;;2.50;1.60;;;;;;4909444;29;20139;-72
2021/03/09 08:08:45;;;;;;;24.63;12.90;;;2.50;1.00;;;;;;4897989;29;20052;-73
2021/03/09 08:11:36;;;;;;;19.95;12.13;;;2.40;1.00;;;;;;4903435;29;20139;-71
2021/03/09 08:14:22;;;;;;;21.88;13.38;;;2.50;1.00;;;;;;4902542;29;20045;-73
2021/03/09 08:16:50;;;;;;;20.98;12.48;;;2.70;1.00;;;;;;4900127;29;20063;-72
2021/03/09 08:19:40;;;;;;;28.13;13.43;;;2.70;1.00;;;;;;4905497;29;20533;-74
2021/03/09 08:22:08;;;;;;;22.20;13.27;;;2.60;1.00;;;;;;4896203;29;20677;-73
2021/03/09 08:24:54;;;;;;;22.23;13.23;;;2.80;1.00;;;;;;4905527;29;20067;-72
2021/03/09 08:27:42;;;;;;;26.25;13.40;;;2.90;1.00;;;;;;4895619;29;20063;-74
2021/03/09 08:30:39;;;;;;;24.48;12.88;;;3.00;1.00;;;;;;4903586;29;20452;-72
2021/03/09 08:33:32;;;;;;;23.27;12.50;;;3.10;1.00;;;;;;4902019;29;20043;-77
2021/03/09 08:36:00;;;;;;;22.95;12.32;;;3.10;1.00;;;;;;4904351;29;20063;-73
2021/03/09 08:38:27;;;;;;;26.50;13.73;;;3.20;1.00;;;;;;4900959;29;20060;-73
2021/03/09 08:41:03;;;;;;;22.90;13.05;;;3.40;1.00;;;;;;4900777;29;20052;-74
2021/03/09 08:43:30;;;;;;;24.20;12.90;;;3.40;1.00;;;;;;4900600;29;20049;-73
2021/03/09 08:45:58;;;;;;;54.90;27.45;;;3.70;1.00;;;;;;4905656;29;20058;-74
2021/03/09 08:48:54;;;;;;;27.63;14.07;;;3.70;1.00;;;;;;4903777;29;20104;-74
2021/03/09 08:51:49;;;;;;;27.45;14.02;;;3.80;1.00;;;;;;4901881;29;20447;-73
2021/03/09 08:54:31;;;;;;;24.35;14.73;;;4.10;1.00;;;;;;4901275;29;20048;-74
2021/03/09 08:57:00;;;;;;;23.88;13.25;;;4.20;1.00;;;;;;4903378;29;20063;-74
2021/03/09 08:59:28;;;;;;;22.08;13.63;;;4.30;1.00;;;;;;4896813;29;20052;-74
2021/03/09 09:02:04;;;;;;;24.88;14.70;;;4.40;1.00;;;;;;4901825;29;20051;-72
2021/03/09 09:04:32;;;;;;;29.65;13.80;;;4.60;1.00;;;;;;4899048;29;20360;-73
2021/03/09 09:06:59;;;;;;;25.42;14.40;;;4.60;1.00;;;;;;4901990;29;20048;-75
2021/03/09 09:09:37;;;;;;;24.15;13.98;;;4.80;1.00;;;;;;4900268;29;20791;-75
2021/03/09 09:12:34;;;;;;;26.95;14.45;;;4.70;1.00;;;;;;4901723;29;20135;-75
2021/03/09 09:15:14;;;;;;;23.73;13.70;;;4.50;1.00;;;;;;4879787;29;20048;-75
2021/03/09 09:17:45;;;;;;;26.17;15.48;;;4.80;1.00;;;;;;4899527;29;20824;-73
2021/03/09 09:20:20;;;;;;;26.23;15.00;;;4.60;1.00;;;;;;4905804;29;20418;-73
2021/03/09 09:22:49;;;;;;;28.13;14.70;;;4.90;1.00;;;;;;4903360;29;20063;-73
2021/03/09 09:25:16;;;;;;;24.92;14.93;;;5.10;1.00;;;;;;4904802;29;20153;-73
2021/03/09 09:27:46;;;;;;;24.90;15.10;;;5.10;1.00;;;;;;4900009;29;20052;-74
2021/03/09 09:30:16;;;;;;;21.20;14.00;;;5.10;1.00;;;;;;4906133;29;20527;-74
2021/03/09 09:32:48;;;;;;;25.80;14.38;;;5.00;1.00;;;;;;4899473;29;20052;-74
2021/03/09 09:35:18;;;;;;;25.98;15.40;;;4.80;1.00;;;;;;4903487;29;20126;-73
2021/03/09 09:37:46;;;;;;;24.52;14.32;;;5.20;1.00;;;;;;4899554;29;20052;-73
2021/03/09 09:40:16;;;;;;;25.77;14.35;;;5.20;1.00;;;;;;4905646;29;20079;-76
2021/03/09 09:42:42;;;;;;;24.15;13.82;;;5.60;1.00;;;;;;4909306;29;20052;-74
2021/03/09 09:45:12;;;;;;;26.27;14.73;;;5.40;1.00;;;;;;4903537;29;20644;-74
2021/03/09 09:47:38;;;;;;;28.27;15.00;;;5.40;1.00;;;;;;4899277;29;20048;-73
2021/03/09 09:50:07;;;;;;;31.17;16.25;;;5.80;1.00;;;;;;4899923;29;20575;-72
2021/03/09 09:52:35;;;;;;;45.58;26.60;;;5.70;1.00;;;;;;4900207;29;20048;-74
2021/03/09 09:55:02;;;;;;;26.05;15.00;;;6.00;1.00;;;;;;4901371;29;20056;-75
2021/03/09 09:57:29;;;;;;;32.50;18.95;;;5.50;1.00;;;;;;4901147;29;20060;-75
2021/03/09 10:00:11;;;;;;;22.73;14.20;;;5.80;1.00;;;;;;4908728;29;20052;-75
2021/03/09 10:02:40;;;;;;;24.40;14.40;;;5.60;1.00;;;;;;4899993;29;20052;-74
2021/03/09 10:05:24;;;;;;;22.27;14.45;;;5.90;1.00;;;;;;4906348;29;20048;-71
2021/03/09 10:07:52;;;;;;;26.40;14.63;;;6.00;1.00;;;;;;4901915;29;20044;-74
2021/03/09 10:10:19;;;;;;;25.52;14.65;;;5.50;1.00;;;;;;4901510;29;20594;-72
2021/03/09 10:12:46;;;;;;;21.83;13.55;;;5.20;1.00;;;;;;4898125;29;20054;-74
2021/03/09 10:15:13;;;;;;;21.20;13.75;;;5.70;1.00;;;;;;4898080;29;20098;-75
2021/03/09 10:17:40;;;;;;;28.10;14.80;;;6.10;1.00;;;;;;4899000;29;20063;-75
2021/03/09 10:20:23;;;;;;;22.45;14.57;;;6.20;1.00;;;;;;4901504;29;20056;-72
2021/03/09 10:23:00;;;;;;;22.65;13.73;;;6.40;1.00;;;;;;4899167;29;20060;-75
2021/03/09 10:25:28;;;;;;;25.85;14.23;;;6.40;1.00;;;;;;4907091;29;20059;-75
2021/03/09 10:28:01;;;;;;;25.85;15.20;;;6.50;1.00;;;;;;4901889;29;20057;-75
2021/03/09 10:30:36;;;;;;;26.63;14.40;;;6.50;1.00;;;;;;4902338;29;20148;-73
2021/03/09 10:33:09;;;;;;;25.33;14.65;;;5.80;1.00;;;;;;4902619;29;20431;-73
2021/03/09 10:36:03;;;;;;;23.25;14.32;;;6.20;1.00;;;;;;4905117;29;20056;-73
2021/03/09 10:38:30;;;;;;;21.70;14.05;;;6.30;1.00;;;;;;4899738;29;20426;-75
2021/03/09 10:40:59;;;;;;;26.48;15.65;;;6.50;1.00;;;;;;4905533;29;20567;-73
2021/03/09 10:43:46;;;;;;;22.52;13.98;;;6.80;1.00;;;;;;4902385;29;20133;-74
2021/03/09 10:46:13;;;;;;;24.52;13.73;;;7.10;1.00;;;;;;4903398;29;20102;-75
2021/03/09 10:48:41;;;;;;;26.65;13.55;;;7.10;1.00;;;;;;4904005;29;20057;-75
2021/03/09 10:51:16;;;;;;;22.38;14.02;;;7.20;1.00;;;;;;4904449;29;20148;-74
2021/03/09 10:53:43;;;;;;;22.25;13.90;;;7.20;1.00;;;;;;4907510;29;20056;-73
2021/03/09 10:56:11;;;;;;;23.50;13.25;;;7.20;1.00;;;;;;4908512;29;20059;-75
2021/03/09 10:58:38;;;;;;;20.08;13.82;;;5.90;1.00;;;;;;4905127;29;20055;-75
2021/03/09 11:01:05;;;;;;;22.75;12.50;;;6.00;1.00;;;;;;4904396;29;20044;-75
2021/03/09 11:03:32;;;;;;;18.48;11.70;;;6.50;1.00;;;;;;4905695;29;20055;-75
2021/03/09 11:05:59;;;;;;;23.25;14.05;;;7.00;1.00;;;;;;4906403;29;20914;-74
2021/03/09 11:08:26;;;;;;;24.17;14.38;;;6.70;1.00;;;;;;4909641;29;20147;-74
2021/03/09 11:10:53;;;;;;;27.85;15.48;;;6.60;1.00;;;;;;4907417;29;20059;-73
2021/03/09 11:13:21;;;;;;;24.80;15.25;;;7.00;1.00;;;;;;4904362;29;20474;-74
2021/03/09 11:15:48;;;;;;;25.83;15.13;;;7.30;1.00;;;;;;4903849;29;20049;-75
2021/03/09 11:18:15;;;;;;;21.30;13.00;;;7.20;1.00;;;;;;4902957;29;20040;-75
2021/03/09 11:20:43;;;;;;;22.00;13.02;;;7.10;1.00;;;;;;4903657;29;20095;-74
2021/03/09 11:23:10;;;;;;;23.42;14.63;;;6.90;1.00;;;;;;4904536;29;20051;-74
2021/03/09 11:25:37;;;;;;;24.17;13.48;;;7.10;1.00;;;;;;4911431;29;20387;-74
2021/03/09 11:28:04;;;;;;;23.70;14.13;;;7.10;1.00;;;;;;4904168;29;20048;-74
2021/03/09 11:30:32;;;;;;;23.55;13.93;;;7.20;1.00;;;;;;4902339;29;20052;-75
2021/03/09 11:32:59;;;;;;;20.88;12.40;;;7.10;1.00;;;;;;4902026;29;20055;-73
2021/03/09 11:35:27;;;;;;;24.23;13.95;;;7.30;1.00;;;;;;4904103;29;20049;-74
2021/03/09 11:37:54;;;;;;;21.30;13.70;;;7.40;1.00;;;;;;4901787;29;20048;-75
2021/03/09 11:40:21;;;;;;;25.70;15.30;;;7.40;1.00;;;;;;4901512;29;20178;-75
2021/03/09 11:42:48;;;;;;;23.23;15.00;;;7.40;1.00;;;;;;4902867;29;20083;-76
2021/03/09 11:45:15;;;;;;;26.67;15.38;;;7.50;1.00;;;;;;4905067;29;20049;-76
2021/03/09 11:47:43;;;;;;;24.77;15.10;;;7.50;1.00;;;;;;4896493;29;20052;-75
2021/03/09 11:50:11;;;;;;;25.40;15.20;;;7.70;1.00;;;;;;4899703;29;20064;-76
2021/03/09 11:52:39;;;;;;;22.55;13.95;;;7.70;1.00;;;;;;4904740;29;20063;-74
2021/03/09 11:55:07;;;;;;;26.83;14.07;;;7.30;1.00;;;;;;4908044;29;20052;-75
2021/03/09 11:57:34;;;;;;;22.95;14.38;;;7.30;1.00;;;;;;4900445;29;20139;-76
2021/03/09 12:00:03;;;;;;;19.90;12.95;;;7.50;1.00;;;;;;4897562;29;20511;-75
2021/03/09 12:02:30;;;;;;;20.92;12.95;;;7.20;1.00;;;;;;4903101;29;20063;-75
2021/03/09 12:04:58;;;;;;;19.90;12.77;;;7.40;1.00;;;;;;4903349;29;20112;-75
2021/03/09 12:07:26;;;;;;;22.55;13.43;;;7.30;1.00;;;;;;4903351;29;20057;-74
2021/03/09 12:09:52;;;;;;;24.90;13.68;;;7.40;1.00;;;;;;4905527;29;20479;-75
2021/03/09 12:12:19;;;;;;;20.00;13.55;;;7.50;1.00;;;;;;4898416;29;20053;-73
2021/03/09 12:14:46;;;;;;;24.05;13.45;;;7.80;1.00;;;;;;4904334;29;20144;-74
2021/03/09 12:17:13;;;;;;;22.77;13.73;;;7.40;1.00;;;;;;4906687;29;20515;-75
2021/03/09 12:19:40;;;;;;;20.67;12.15;;;7.90;1.00;;;;;;4909893;29;20067;-76
2021/03/09 12:22:09;;;;;;;20.88;12.60;;;8.00;1.00;;;;;;4901758;29;20573;-74
2021/03/09 12:24:35;;;;;;;21.63;12.50;;;8.10;1.00;;;;;;4899457;29;20051;-76
2021/03/09 12:27:02;;;;;;;19.85;11.40;;;7.90;1.00;;;;;;4901844;29;20048;-75
2021/03/09 12:29:29;;;;;;;20.58;13.00;;;8.00;1.00;;;;;;4898757;29;20499;-75
2021/03/09 12:31:56;;;;;;;20.40;12.20;;;7.90;1.00;;;;;;4902541;29;20056;-73
2021/03/09 12:34:24;;;;;;;21.77;11.82;;;7.50;1.00;;;;;;4902697;29;20072;-74
2021/03/09 12:36:50;;;;;;;15.05;10.55;;;7.80;1.00;;;;;;4905580;29;20053;-76
2021/03/09 12:39:18;;;;;;;16.85;10.18;;;8.10;1.00;;;;;;4901249;29;20047;-75
2021/03/09 12:41:45;;;;;;;15.43;10.82;;;7.90;1.00;;;;;;4901731;29;20055;-75
2021/03/09 12:44:12;;;;;;;16.20;10.35;;;7.80;1.00;;;;;;4903631;29;20064;-75
2021/03/09 12:46:39;;;;;;;15.57;10.05;;;7.30;1.00;;;;;;4901458;29;20048;-75
2021/03/09 12:49:06;;;;;;;15.23;8.75;;;7.90;1.00;;;;;;4897093;29;20175;-74
2021/03/09 12:51:33;;;;;;;12.40;8.77;;;7.80;1.00;;;;;;4901945;29;20551;-73